createdAt,value
2022-08-05T00:01:20.828Z,96958.28
2022-08-05T00:04:14.288Z,96954.09
2022-08-05T00:07:00.572Z,96948.50
2022-08-05T00:10:06.370Z,96948.56
2022-08-05T00:12:56.343Z,96944.88
2022-08-05T00:15:57.993Z,96945.75
2022-08-05T00:18:46.384Z,96950.63
2022-08-05T00:21:35.989Z,96947.75
2022-08-05T00:24:24.774Z,96952.41
2022-08-05T00:27:20.056Z,96942.63
2022-08-05T00:30:14.749Z,96941.63
2022-08-05T00:33:00.892Z,96949.47
2022-08-05T00:35:48.022Z,96945.75
2022-08-05T00:38:53.562Z,96945.84
2022-08-05T00:44:30.575Z,96945.69
2022-08-05T00:47:17.816Z,96949.47
2022-08-05T00:50:05.171Z,96943.59
2022-08-05T00:55:47.092Z,96941.28
2022-08-05T00:58:32.900Z,96937.88
2022-08-05T01:01:41.966Z,96937.44
2022-08-05T01:04:26.847Z,96935.13
2022-08-05T01:07:17.874Z,96927.69
2022-08-05T01:10:09.127Z,96931.44
2022-08-05T01:13:22.188Z,96930.38
2022-08-05T01:16:26.336Z,96927.19
2022-08-05T01:22:10.972Z,96922.75
2022-08-05T01:28:39.292Z,96933.06
2022-08-05T01:31:44.885Z,96930.72
2022-08-05T01:34:37.155Z,96926.78
2022-08-05T01:37:36.558Z,96923.38
2022-08-05T01:43:50.529Z,96916.75
2022-08-05T01:46:42.647Z,96917.31
2022-08-05T01:49:59.985Z,96912.53
2022-08-05T01:52:43.304Z,96912.31
2022-08-05T01:55:36.325Z,96909.41
2022-08-05T01:58:29.560Z,96906.50
2022-08-05T02:01:29.307Z,96911.63
2022-08-05T02:04:28.784Z,96907.66
2022-08-05T02:07:22.043Z,96910.38
2022-08-05T02:10:09.709Z,96909.09
2022-08-05T02:13:16.325Z,96909.41
2022-08-05T02:19:12.329Z,96908.44
2022-08-05T02:25:02.157Z,96913.31
2022-08-05T02:27:59.810Z,96910.09
2022-08-05T02:39:52.743Z,96914.03
2022-08-05T02:42:39.832Z,96914.59
2022-08-05T02:45:28.533Z,96914.06
2022-08-05T02:48:43.460Z,96903.69
2022-08-05T02:58:10.734Z,96905.59
2022-08-05T03:00:46.111Z,96899.22
2022-08-05T03:03:34.047Z,96902.72
2022-08-05T03:06:57.089Z,96896.91
2022-08-05T03:09:51.748Z,96895.88
2022-08-05T03:12:39.817Z,96897.25
2022-08-05T03:21:33.206Z,96897.88
2022-08-05T03:24:30.894Z,96900.03
2022-08-05T03:27:17.098Z,96892.28
2022-08-05T03:32:52.031Z,96895.78
2022-08-05T03:38:37.474Z,96897.16
2022-08-05T03:47:07.818Z,96892.63
2022-08-05T03:49:53.661Z,96899.88
2022-08-05T03:55:49.852Z,96899.63
2022-08-05T03:56:30.693Z,96898.53
2022-08-05T03:59:47.065Z,96892.13
2022-08-05T04:02:52.335Z,96900.16
2022-08-05T04:05:45.561Z,96894.03
2022-08-05T04:08:36.774Z,96895.88
2022-08-05T04:11:23.369Z,96894.31
2022-08-05T04:14:30.421Z,96893.16
2022-08-05T04:17:17.931Z,96895.63
2022-08-05T04:20:05.885Z,96891.00
2022-08-05T04:22:57.437Z,96894.81
2022-08-05T04:26:00.505Z,96887.00
2022-08-05T04:28:51.336Z,96903.16
2022-08-05T04:31:38.757Z,96892.50
2022-08-05T04:34:32.802Z,96892.16
2022-08-05T04:37:20.534Z,96887.75
2022-08-05T04:40:10.593Z,96892.16
2022-08-05T04:42:56.613Z,96891.63
2022-08-05T04:45:48.991Z,96899.66
2022-08-05T04:48:41.079Z,96899.13
2022-08-05T04:51:30.568Z,96906.16
2022-08-05T04:54:20.560Z,96901.19
2022-08-05T04:57:08.605Z,96900.72
2022-08-05T04:59:54.852Z,96909.78
2022-08-05T05:02:41.838Z,96917.03
2022-08-05T05:05:29.755Z,96912.25
2022-08-05T05:08:29.916Z,96902.41
2022-08-05T05:11:16.659Z,96913.13
2022-08-05T05:14:03.705Z,96911.69
2022-08-05T05:16:40.979Z,96907.97
2022-08-05T05:35:07.108Z,96902.50
2022-08-05T05:38:00.039Z,96912.28
2022-08-05T05:40:49.722Z,96909.31
2022-08-05T05:43:56.953Z,96906.13
2022-08-05T05:46:43.668Z,96910.78
2022-08-05T05:49:30.650Z,96906.38
2022-08-05T05:52:28.487Z,96913.03
2022-08-05T05:55:19.147Z,96909.31
2022-08-05T05:58:05.201Z,96912.16
2022-08-05T06:00:51.021Z,96911.75
2022-08-05T06:03:54.103Z,96904.34
2022-08-05T06:09:25.926Z,96910.19
2022-08-05T06:12:28.174Z,96920.75
2022-08-05T06:15:23.992Z,96914.88
2022-08-05T06:18:09.915Z,96913.88
2022-08-05T06:20:55.337Z,96905.88
2022-08-05T06:23:44.227Z,96910.81
2022-08-05T06:26:31.955Z,96903.94
2022-08-05T06:29:25.083Z,96910.09
2022-08-05T06:32:29.187Z,96905.84
2022-08-05T06:35:21.836Z,96905.19
2022-08-05T06:38:35.834Z,96901.53
2022-08-05T06:41:22.317Z,96893.72
2022-08-05T06:44:07.654Z,96898.25
2022-08-05T06:46:54.385Z,96905.44
2022-08-05T06:50:00.282Z,96903.22
2022-08-05T06:52:58.635Z,96894.81
2022-08-05T06:55:49.589Z,96895.63
2022-08-05T06:58:36.699Z,96900.03
2022-08-05T07:01:23.031Z,96883.69
2022-08-05T07:04:13.912Z,96877.44
2022-08-05T07:06:59.879Z,96883.94
2022-08-05T07:17:59.256Z,96876.31
2022-08-05T07:23:00.985Z,96884.59
2022-08-05T07:25:54.930Z,96884.50
2022-08-05T07:28:46.414Z,96890.41
2022-08-05T07:31:40.738Z,96887.41
2022-08-05T07:34:42.127Z,96887.44
2022-08-05T07:37:29.084Z,96876.00
2022-08-05T07:40:26.727Z,96876.25
2022-08-05T07:43:20.618Z,96881.34
2022-08-05T07:46:07.227Z,96881.25
2022-08-05T07:49:11.025Z,96885.75
2022-08-05T07:51:57.071Z,96884.78
2022-08-05T07:54:47.652Z,96882.34
2022-08-05T07:57:52.197Z,96879.53
2022-08-05T08:00:41.823Z,96883.84
2022-08-05T08:03:44.564Z,96886.38
2022-08-05T08:06:32.687Z,96886.72
2022-08-05T08:09:19.766Z,96888.06
2022-08-05T08:12:14.666Z,96890.94
2022-08-05T08:15:09.714Z,96878.81
2022-08-05T08:18:01.806Z,96882.13
2022-08-05T08:21:03.180Z,96877.22
2022-08-05T08:24:02.727Z,96864.22
2022-08-05T08:26:50.955Z,96870.13
2022-08-05T08:30:05.171Z,96865.81
2022-08-05T08:32:44.311Z,96863.84
2022-08-05T08:35:34.822Z,96867.66
2022-08-05T08:38:32.323Z,96871.78
2022-08-05T08:41:25.916Z,96878.22
2022-08-05T08:45:22.360Z,96882.38
2022-08-05T08:48:05.406Z,96884.69
2022-08-05T08:51:03.372Z,96885.34
2022-08-05T08:53:45.108Z,96884.94
2022-08-05T08:56:33.002Z,96888.09
2022-08-05T08:59:21.023Z,96888.03
2022-08-05T09:02:08.625Z,96894.59
2022-08-05T09:07:40.037Z,96912.69
2022-08-05T09:10:46.941Z,96916.41
2022-08-05T09:14:00.970Z,96927.50
2022-08-05T09:16:40.540Z,96918.25
2022-08-05T09:19:36.441Z,96920.72
2022-08-05T09:22:32.151Z,96920.78
2022-08-05T09:25:23.967Z,96918.13
2022-08-05T09:28:47.960Z,96914.72
2022-08-05T09:32:41.142Z,96913.22
2022-08-05T09:38:12.125Z,96910.97
2022-08-05T09:40:33.873Z,96906.31
2022-08-05T09:52:58.659Z,96902.44
2022-08-05T09:55:59.242Z,96902.09
2022-08-05T10:05:09.864Z,96909.69
2022-08-05T10:11:06.359Z,96913.00
2022-08-05T10:13:55.918Z,96913.06
2022-08-05T10:16:52.479Z,96915.47
2022-08-05T10:20:03.662Z,96906.06
2022-08-05T10:22:50.915Z,96906.06
2022-08-05T10:25:36.937Z,96912.78
2022-08-05T10:28:29.585Z,96909.69
2022-08-05T10:32:48.072Z,96910.91
2022-08-05T10:34:25.916Z,96896.00
2022-08-05T10:37:16.401Z,96900.31
2022-08-05T10:40:17.960Z,96888.91
2022-08-05T10:43:36.565Z,96899.91
2022-08-05T10:46:23.973Z,96906.56
2022-08-05T10:49:10.482Z,96895.94
2022-08-05T10:52:05.276Z,96885.69
2022-08-05T10:55:07.884Z,96891.13
2022-08-05T10:58:11.377Z,96892.97
2022-08-05T11:01:03.089Z,96897.59
2022-08-05T11:04:17.630Z,96896.81
2022-08-05T11:07:08.928Z,96893.22
2022-08-05T11:10:04.057Z,96895.47
2022-08-05T11:12:57.632Z,96893.09
2022-08-05T11:16:00.596Z,96898.31
2022-08-05T11:18:47.271Z,96905.84
2022-08-05T11:21:48.899Z,96898.59
2022-08-05T11:24:34.996Z,96913.97
2022-08-05T11:27:37.077Z,96915.22
2022-08-05T11:30:55.587Z,96919.97
2022-08-05T11:33:48.191Z,96917.97
2022-08-05T11:36:57.105Z,96921.50
2022-08-05T11:39:55.488Z,96921.13
2022-08-05T11:42:48.214Z,96920.34
2022-08-05T11:46:15.975Z,96922.69
2022-08-05T11:48:53.074Z,96923.50
2022-08-05T11:51:44.448Z,96917.22
2022-08-05T11:54:41.526Z,96924.19
2022-08-05T11:58:08.237Z,96922.41
2022-08-05T12:00:38.133Z,96931.66
2022-08-05T12:03:31.564Z,96928.97
2022-08-05T12:06:20.622Z,96924.13
2022-08-05T12:09:06.748Z,96932.06
2022-08-05T12:11:52.395Z,96921.09
2022-08-05T12:14:43.368Z,96924.63
2022-08-05T12:18:03.311Z,96927.38
2022-08-05T12:20:41.416Z,96920.31
2022-08-05T12:23:27.183Z,96911.31
2022-08-05T12:26:12.926Z,96914.88
2022-08-05T12:28:58.493Z,96908.91
2022-08-05T12:31:54.725Z,96913.19
2022-08-05T12:34:40.683Z,96912.75
2022-08-05T12:37:29.967Z,96918.22
2022-08-05T12:40:26.457Z,96917.06
2022-08-05T12:43:20.666Z,96919.47
2022-08-05T12:46:06.646Z,96912.69
2022-08-05T12:49:12.905Z,96909.44
2022-08-05T12:52:12.421Z,96913.00
2022-08-05T12:55:22.371Z,96913.50
2022-08-05T12:58:38.693Z,96923.38
2022-08-05T13:02:04.164Z,96925.41
2022-08-05T13:04:21.324Z,96917.16
2022-08-05T13:07:16.185Z,96907.38
2022-08-05T13:10:04.653Z,96914.03
2022-08-05T13:12:57.100Z,96917.94
2022-08-05T13:15:50.533Z,96912.38
2022-08-05T13:18:39.982Z,96915.56
2022-08-05T13:21:27.855Z,96918.72
2022-08-05T13:24:14.322Z,96910.06
2022-08-05T13:27:38.075Z,96898.28
2022-08-05T13:30:33.619Z,96897.44
2022-08-05T13:34:22.941Z,96896.56
2022-08-05T13:36:27.305Z,96883.81
2022-08-05T13:39:24.305Z,96884.56
2022-08-05T13:42:24.117Z,96883.00
2022-08-05T13:45:11.069Z,96873.59
2022-08-05T13:48:09.661Z,96876.28
2022-08-05T13:51:09.693Z,96879.47
2022-08-05T13:53:56.460Z,96875.59
2022-08-05T13:56:51.033Z,96868.91
2022-08-05T13:59:57.209Z,96868.88
2022-08-05T14:02:44.824Z,96862.22
2022-08-05T14:06:04.977Z,96874.28
2022-08-05T14:08:36.420Z,96873.00
2022-08-05T14:11:22.298Z,96875.22
2022-08-05T14:14:08.638Z,96874.03
2022-08-05T14:16:55.318Z,96876.28
2022-08-05T14:19:54.661Z,96869.41
2022-08-05T14:22:50.295Z,96870.72
2022-08-05T14:25:35.945Z,96877.03
2022-08-05T14:28:30.921Z,96862.53
2022-08-05T14:31:17.365Z,96863.75
2022-08-05T14:34:23.705Z,96868.31
2022-08-05T14:37:09.322Z,96857.41
2022-08-05T14:39:59.176Z,96856.41
2022-08-05T14:42:44.407Z,96861.31
2022-08-05T14:45:29.761Z,96863.91
2022-08-05T14:48:32.697Z,96866.03
2022-08-05T14:51:20.123Z,96863.00
2022-08-05T14:54:28.967Z,96866.63
2022-08-05T14:57:13.689Z,96857.69
2022-08-05T14:59:59.157Z,96850.41
2022-08-05T15:02:45.608Z,96858.56
2022-08-05T15:06:12.934Z,96851.75
2022-08-05T15:08:59.868Z,96842.50
2022-08-05T15:11:53.149Z,96844.06
2022-08-05T15:14:48.329Z,96841.84
2022-08-05T15:17:47.095Z,96848.69
2022-08-05T15:20:34.445Z,96834.47
2022-08-05T15:23:20.284Z,96841.63
2022-08-05T15:26:05.908Z,96836.91
2022-08-05T15:28:52.870Z,96839.91
2022-08-05T15:31:39.318Z,96841.63
2022-08-05T15:34:31.915Z,96838.22
2022-08-05T15:38:08.363Z,96835.09
2022-08-05T15:41:02.823Z,96839.06
2022-08-05T15:43:31.323Z,96849.88
2022-08-05T15:46:31.927Z,96843.06
2022-08-05T15:49:26.257Z,96835.66
2022-08-05T15:52:51.978Z,96843.19
2022-08-05T15:56:02.062Z,96846.00
2022-08-05T15:58:35.752Z,96849.78
2022-08-05T16:01:29.601Z,96850.59
2022-08-05T16:04:25.980Z,96852.25
2022-08-05T16:07:11.811Z,96854.22
2022-08-05T16:09:58.479Z,96846.41
2022-08-05T16:12:43.886Z,96848.72
2022-08-05T16:15:32.387Z,96860.88
2022-08-05T16:18:19.641Z,96856.47
2022-08-05T16:21:05.261Z,96856.84
2022-08-05T16:23:54.583Z,96866.22
2022-08-05T16:26:55.999Z,96861.00
2022-08-05T16:29:44.159Z,96861.09
2022-08-05T16:32:32.913Z,96861.94
2022-08-05T16:35:18.904Z,96867.47
2022-08-05T16:38:23.778Z,96874.50
2022-08-05T16:42:12.511Z,96875.56
2022-08-05T16:44:17.578Z,96877.31
2022-08-05T16:47:03.843Z,96880.97
2022-08-05T16:49:50.058Z,96876.91
2022-08-05T16:52:38.888Z,96881.28
2022-08-05T16:55:32.446Z,96876.19
2022-08-05T16:58:32.939Z,96880.09
2022-08-05T17:01:19.242Z,96882.56
2022-08-05T17:04:05.109Z,96876.00
2022-08-05T17:06:53.007Z,96880.41
2022-08-05T17:09:57.563Z,96877.66
2022-08-05T17:12:51.766Z,96875.28
2022-08-05T17:15:48.856Z,96880.81
2022-08-05T17:18:38.429Z,96891.03
2022-08-05T17:21:24.685Z,96892.59
2022-08-05T17:24:28.183Z,96885.94
2022-08-05T17:27:16.210Z,96898.59
2022-08-05T17:30:04.395Z,96902.22
2022-08-05T17:32:52.762Z,96901.44
2022-08-05T17:36:09.498Z,96899.88
2022-08-05T17:38:43.778Z,96908.16
2022-08-05T17:42:17.520Z,96903.47
2022-08-05T17:44:34.889Z,96897.53
2022-08-05T17:47:22.458Z,96906.19
2022-08-05T17:50:10.941Z,96906.97
2022-08-05T17:53:05.401Z,96925.81
2022-08-05T17:55:50.910Z,96921.44
2022-08-05T17:58:37.738Z,96924.91
2022-08-05T18:01:23.862Z,96927.25
2022-08-05T18:04:11.822Z,96928.75
2022-08-05T18:16:46.768Z,96929.25
2022-08-05T18:28:48.397Z,96929.34
2022-08-05T18:37:34.548Z,96934.50
2022-08-05T18:40:34.094Z,96942.19
2022-08-05T18:43:38.374Z,96944.44
2022-08-05T18:46:29.364Z,96953.25
2022-08-05T18:49:44.660Z,96950.34
2022-08-05T18:52:51.071Z,96958.00
2022-08-05T18:55:37.974Z,96963.00
2022-08-05T18:58:28.877Z,96969.44
2022-08-05T19:01:18.008Z,96973.66
2022-08-05T19:04:24.019Z,96978.28
2022-08-05T19:07:11.640Z,96975.00
2022-08-05T19:09:58.337Z,96978.78
2022-08-05T19:12:46.081Z,96985.00
2022-08-05T19:15:57.870Z,96989.91
2022-08-05T19:18:24.465Z,96988.66
2022-08-05T19:21:10.339Z,97003.78
2022-08-05T19:24:05.321Z,97002.41
2022-08-05T19:26:55.819Z,97008.00
2022-08-05T19:29:43.331Z,97004.38
2022-08-05T19:32:30.251Z,97008.06
2022-08-05T19:35:16.193Z,97025.06
2022-08-05T19:38:05.901Z,97026.06
2022-08-05T19:40:52.489Z,97021.25
2022-08-05T19:44:05.699Z,97028.50
2022-08-05T19:46:40.031Z,97031.53
2022-08-05T19:49:28.982Z,97025.91
2022-08-05T19:52:40.751Z,97028.91
2022-08-05T19:56:13.643Z,97030.28
2022-08-05T19:58:32.965Z,97025.88
2022-08-05T20:01:39.349Z,97032.69
2022-08-05T20:04:25.522Z,97036.00
2022-08-05T20:13:11.186Z,97047.91
2022-08-05T20:15:57.512Z,97039.81
2022-08-05T20:21:46.462Z,97043.44
2022-08-05T20:27:26.431Z,97046.25
2022-08-05T20:30:13.285Z,97046.88
2022-08-05T20:32:59.843Z,97056.09
2022-08-05T20:35:45.951Z,97060.75
2022-08-05T20:38:58.013Z,97070.00
2022-08-05T20:41:45.159Z,97076.13
2022-08-05T20:44:37.750Z,97076.47
2022-08-05T20:47:32.356Z,97088.25
2022-08-05T20:50:18.725Z,97087.13
2022-08-05T20:53:05.173Z,97099.97
2022-08-05T20:56:08.791Z,97105.97
2022-08-05T20:58:55.633Z,97115.53
2022-08-05T21:01:46.469Z,97112.38
2022-08-05T21:04:33.334Z,97113.75
2022-08-05T21:07:19.273Z,97128.34
2022-08-05T21:10:09.616Z,97130.50
2022-08-05T21:13:11.274Z,97136.09
2022-08-05T21:16:03.583Z,97143.84
2022-08-05T21:18:50.138Z,97132.50
2022-08-05T21:21:39.352Z,97146.03
2022-08-05T21:24:31.102Z,97148.41
2022-08-05T21:27:16.795Z,97152.41
2022-08-05T21:30:07.252Z,97151.38
2022-08-05T21:32:54.874Z,97148.66
2022-08-05T21:36:06.512Z,97153.88
2022-08-05T21:41:52.865Z,97169.31
2022-08-05T21:47:56.124Z,97180.97
2022-08-05T21:50:54.067Z,97198.16
2022-08-05T21:53:40.645Z,97215.78
2022-08-05T21:56:26.729Z,97216.66
2022-08-05T21:59:24.409Z,97219.94
2022-08-05T22:02:12.369Z,97227.03
2022-08-05T22:05:00.174Z,97223.75
2022-08-05T22:07:58.990Z,97232.28
2022-08-05T22:10:48.584Z,97237.28
2022-08-05T22:14:19.710Z,97247.16
2022-08-05T22:16:51.183Z,97243.69
2022-08-05T22:22:28.842Z,97256.34
2022-08-05T22:26:10.375Z,97250.47
2022-08-05T22:28:40.252Z,97270.94
2022-08-05T22:31:30.306Z,97265.72
2022-08-05T22:34:25.449Z,97260.66
2022-08-05T22:37:15.212Z,97264.34
2022-08-05T22:40:01.419Z,97271.81
2022-08-05T22:42:57.858Z,97288.09
2022-08-05T22:45:44.598Z,97288.88
2022-08-05T22:48:31.762Z,97291.44
2022-08-05T22:51:23.233Z,97297.66
2022-08-05T22:54:24.884Z,97316.94
2022-08-05T22:57:13.681Z,97328.53
2022-08-05T23:00:01.269Z,97326.38
2022-08-05T23:02:52.350Z,97334.19
2022-08-05T23:08:34.874Z,97330.31
2022-08-05T23:11:22.050Z,97325.78
2022-08-05T23:14:08.384Z,97341.94
2022-08-05T23:17:15.454Z,97350.75
2022-08-05T23:20:17.488Z,97356.31
2022-08-05T23:23:08.650Z,97386.00
2022-08-05T23:25:55.593Z,97397.06
2022-08-05T23:28:43.179Z,97409.75
2022-08-05T23:31:28.794Z,97417.97
2022-08-05T23:34:15.868Z,97420.00
2022-08-05T23:37:11.402Z,97413.38
2022-08-05T23:39:56.694Z,97405.94
2022-08-05T23:42:47.305Z,97402.47
2022-08-05T23:45:33.536Z,97410.19
2022-08-05T23:48:19.731Z,97419.50
2022-08-05T23:51:05.250Z,97429.03
2022-08-05T23:53:50.839Z,97432.19
2022-08-05T23:56:46.418Z,97442.34
